Time;durP1;ratioP1;P1;durP2;ratioP2;P2;SDS_P1;SDS_P2;PMS_P1;PMS_P2;Temp;Humidity;BMP_temperature;BMP_pressure;BME280_temperature;BME280_humidity;BME280_pressure;Samples;Min_cycle;Max_cycle;Signal;HPM_P1;HPM_P2
2021/01/03 00:00:41;;;;;;;10.65;7.00;;;1.40;26.00;;;;;;5050776;28;20063;-72
2021/01/03 00:03:08;;;;;;;9.20;5.97;;;1.30;25.30;;;;;;5052343;28;20045;-70
2021/01/03 00:05:36;;;;;;;9.70;6.47;;;1.30;25.60;;;;;;5051429;28;20045;-70
2021/01/03 00:08:03;;;;;;;9.60;6.35;;;1.30;25.60;;;;;;5049024;28;20067;-73
2021/01/03 00:10:30;;;;;;;11.35;7.13;;;1.30;25.60;;;;;;5050665;28;20053;-73
2021/01/03 00:12:57;;;;;;;11.02;6.85;;;1.30;25.80;;;;;;5049961;28;20049;-69
2021/01/03 00:15:24;;;;;;;10.38;6.55;;;1.30;25.40;;;;;;5051477;28;20049;-71
2021/01/03 00:17:52;;;;;;;10.00;6.60;;;1.30;25.10;;;;;;5049103;28;20057;-70
2021/01/03 00:20:23;;;;;;;9.93;6.50;;;1.30;24.90;;;;;;5050466;28;20040;-70
2021/01/03 00:22:51;;;;;;;12.00;7.45;;;1.30;25.50;;;;;;5048577;28;20041;-71
2021/01/03 00:25:20;;;;;;;11.02;6.63;;;1.30;25.20;;;;;;5050340;28;20053;-70
2021/01/03 00:27:46;;;;;;;11.32;7.03;;;1.30;25.50;;;;;;5049586;28;20053;-71
2021/01/03 00:30:15;;;;;;;10.35;6.78;;;1.30;25.60;;;;;;5051055;28;20664;-71
2021/01/03 00:32:42;;;;;;;11.05;6.60;;;1.30;25.30;;;;;;5047748;28;20472;-70
2021/01/03 00:35:12;;;;;;;9.65;6.75;;;1.30;25.20;;;;;;5050625;28;20462;-72
2021/01/03 00:37:39;;;;;;;11.55;7.20;;;1.30;25.00;;;;;;5049540;28;20049;-70
2021/01/03 00:40:11;;;;;;;11.55;7.60;;;1.30;25.20;;;;;;5051658;28;20067;-70
2021/01/03 00:42:38;;;;;;;11.70;6.53;;;1.30;25.60;;;;;;5048706;28;20041;-69
2021/01/03 00:45:08;;;;;;;11.63;7.10;;;1.30;24.60;;;;;;5050693;28;20059;-71
2021/01/03 00:47:35;;;;;;;10.93;6.60;;;1.30;25.30;;;;;;5049233;28;20118;-71
2021/01/03 00:50:04;;;;;;;12.35;7.53;;;1.30;25.20;;;;;;5050882;28;20056;-73
2021/01/03 00:52:31;;;;;;;11.23;6.88;;;1.30;25.20;;;;;;5048043;28;20471;-72
2021/01/03 00:54:58;;;;;;;11.07;6.47;;;1.30;25.30;;;;;;5049943;28;20051;-73
2021/01/03 00:57:25;;;;;;;11.57;7.32;;;1.30;25.60;;;;;;5047248;28;20041;-74
2021/01/03 00:59:52;;;;;;;10.50;6.60;;;1.30;25.30;;;;;;5047645;28;20072;-72
2021/01/03 01:02:19;;;;;;;12.60;7.22;;;1.40;25.40;;;;;;5046206;28;20044;-72
2021/01/03 01:04:46;;;;;;;11.95;7.35;;;1.30;25.60;;;;;;5051007;28;20052;-71
2021/01/03 01:07:13;;;;;;;12.10;7.25;;;1.30;25.40;;;;;;5050560;28;20049;-71
2021/01/03 01:09:40;;;;;;;11.43;7.60;;;1.30;25.80;;;;;;5048422;28;20049;-72
2021/01/03 01:12:07;;;;;;;11.68;7.40;;;1.30;26.10;;;;;;5044605;28;20049;-72
2021/01/03 01:14:35;;;;;;;13.40;7.93;;;1.30;26.30;;;;;;5050233;28;20059;-70
2021/01/03 01:17:03;;;;;;;12.18;7.30;;;1.30;25.90;;;;;;5048831;28;20079;-72
2021/01/03 01:19:30;;;;;;;12.38;7.03;;;1.30;25.60;;;;;;5047022;28;20049;-72
2021/01/03 01:21:57;;;;;;;12.30;7.50;;;1.20;25.70;;;;;;5047280;28;20045;-72
2021/01/03 01:24:23;;;;;;;14.02;8.30;;;1.20;26.30;;;;;;5050924;28;20052;-74
2021/01/03 01:26:50;;;;;;;12.13;7.22;;;1.20;26.00;;;;;;5049579;28;20057;-72
2021/01/03 01:29:17;;;;;;;15.70;7.95;;;1.30;26.00;;;;;;5047758;28;20053;-72
2021/01/03 01:31:45;;;;;;;11.02;7.10;;;1.20;26.60;;;;;;5048022;28;20059;-72
2021/01/03 01:34:13;;;;;;;13.55;8.07;;;1.20;27.10;;;;;;5047993;28;20090;-72
2021/01/03 01:36:44;;;;;;;10.63;7.13;;;1.30;26.70;;;;;;5050754;28;20041;-70
2021/01/03 01:39:11;;;;;;;12.20;7.78;;;1.30;26.90;;;;;;5046750;28;20045;-71
2021/01/03 01:41:38;;;;;;;14.38;8.38;;;1.20;26.50;;;;;;5046325;28;20048;-72
2021/01/03 01:44:05;;;;;;;13.05;8.65;;;1.20;27.00;;;;;;5047699;28;20048;-72
2021/01/03 01:46:35;;;;;;;12.70;8.60;;;1.30;27.20;;;;;;5049320;28;20048;-72
2021/01/03 01:49:09;;;;;;;14.02;8.30;;;1.20;27.30;;;;;;5042816;28;20140;-73
2021/01/03 01:51:40;;;;;;;13.82;9.00;;;1.20;27.30;;;;;;5047005;28;20053;-71
2021/01/03 01:54:13;;;;;;;14.57;8.43;;;1.20;27.40;;;;;;5048350;28;20036;-73
2021/01/03 01:56:46;;;;;;;13.18;8.13;;;1.20;27.30;;;;;;5049639;28;20056;-72
2021/01/03 01:59:17;;;;;;;13.25;8.30;;;1.10;27.60;;;;;;5047524;28;20045;-72
2021/01/03 02:01:51;;;;;;;13.43;8.65;;;1.10;29.40;;;;;;5046400;28;20079;-71
2021/01/03 02:04:27;;;;;;;13.98;8.73;;;1.10;30.20;;;;;;5048874;28;20055;-73
2021/01/03 02:07:05;;;;;;;14.98;9.43;;;1.10;30.20;;;;;;5045736;28;20051;-73
2021/01/03 02:09:38;;;;;;;17.40;8.60;;;1.00;32.20;;;;;;5047458;28;20566;-74
2021/01/03 02:12:14;;;;;;;13.60;8.65;;;0.90;33.10;;;;;;5043630;28;20048;-72
2021/01/03 02:14:42;;;;;;;14.57;9.07;;;0.90;34.60;;;;;;5050321;28;20427;-72
2021/01/03 02:17:09;;;;;;;13.43;8.95;;;0.90;34.70;;;;;;5049453;28;20048;-72
2021/01/03 02:19:37;;;;;;;15.00;9.70;;;0.90;35.00;;;;;;5045356;28;20430;-71
2021/01/03 02:22:15;;;;;;;14.68;9.23;;;0.90;36.50;;;;;;5044164;28;20052;-72
2021/01/03 02:24:46;;;;;;;17.40;10.57;;;0.80;37.60;;;;;;5046316;28;20053;-72
2021/01/03 02:27:20;;;;;;;18.30;10.30;;;0.80;39.00;;;;;;5046372;28;20056;-73
2021/01/03 02:29:49;;;;;;;;;;;0.80;39.70;;;;;;5046402;28;20060;-72
2021/01/03 02:32:16;;;;;;;20.65;11.40;;;0.80;40.30;;;;;;5044146;28;19927;-72
2021/01/03 02:34:48;;;;;;;16.63;10.68;;;0.70;42.60;;;;;;5047073;28;20056;-72
2021/01/03 02:37:19;;;;;;;19.40;10.85;;;0.60;43.10;;;;;;5045011;28;20061;-73
2021/01/03 02:39:54;;;;;;;22.35;12.02;;;0.50;45.60;;;;;;5046341;28;20434;-73
2021/01/03 02:42:23;;;;;;;;;;;0.50;47.00;;;;;;5044134;28;20045;-72
2021/01/03 02:44:50;;;;;;;18.75;11.73;;;0.50;48.70;;;;;;5044762;28;19928;-72
2021/01/03 02:47:21;;;;;;;22.63;12.50;;;0.50;49.70;;;;;;5044489;28;20056;-73
2021/01/03 02:49:48;;;;;;;21.52;12.65;;;0.40;51.70;;;;;;5046425;28;20051;-72
2021/01/03 02:52:22;;;;;;;21.17;12.88;;;0.50;53.50;;;;;;5042544;28;20443;-73
2021/01/03 02:54:50;;;;;;;21.38;12.80;;;0.40;53.70;;;;;;5045545;28;21323;-73
2021/01/03 02:57:17;;;;;;;24.88;13.88;;;0.30;54.80;;;;;;5044335;28;20074;-74
2021/01/03 02:59:45;;;;;;;26.20;13.82;;;0.30;56.40;;;;;;5044896;28;20041;-73
2021/01/03 03:02:12;;;;;;;25.15;13.65;;;0.30;57.60;;;;;;5042922;28;20060;-73
2021/01/03 03:04:39;;;;;;;21.25;13.30;;;0.30;58.50;;;;;;5045832;28;20060;-73
2021/01/03 03:07:06;;;;;;;22.70;12.75;;;0.20;59.30;;;;;;5045210;28;20055;-73
2021/01/03 03:09:33;;;;;;;26.30;14.80;;;0.20;61.10;;;;;;5044219;28;20076;-75
2021/01/03 03:12:00;;;;;;;26.75;14.35;;;0.20;62.00;;;;;;5040247;28;20048;-72
2021/01/03 03:14:27;;;;;;;25.65;14.27;;;0.20;61.40;;;;;;5045734;28;20059;-72
2021/01/03 03:16:58;;;;;;;28.48;15.52;;;0.30;62.10;;;;;;5045420;28;20049;-73
2021/01/03 03:19:27;;;;;;;24.23;13.68;;;0.30;62.40;;;;;;5043345;28;20131;-72
2021/01/03 03:21:54;;;;;;;27.88;14.38;;;0.20;62.10;;;;;;5043153;28;20053;-73
2021/01/03 03:24:21;;;;;;;31.08;15.48;;;0.20;62.80;;;;;;5045674;28;20060;-71
2021/01/03 03:26:52;;;;;;;28.02;15.40;;;0.20;63.50;;;;;;5045094;28;20499;-72
2021/01/03 03:29:20;;;;;;;27.58;15.40;;;0.20;63.70;;;;;;5043292;28;20552;-72
2021/01/03 03:31:47;;;;;;;27.40;14.43;;;0.10;64.20;;;;;;5042842;28;20056;-72
2021/01/03 03:34:16;;;;;;;30.30;15.77;;;0.20;65.00;;;;;;5045932;28;20720;-73
2021/01/03 03:36:43;;;;;;;29.85;15.82;;;0.20;64.60;;;;;;5045060;28;20047;-72
2021/01/03 03:39:11;;;;;;;27.83;15.60;;;0.10;65.00;;;;;;5042010;28;20049;-73
2021/01/03 03:41:38;;;;;;;25.75;14.65;;;0.10;65.70;;;;;;5043057;28;20067;-73
2021/01/03 03:44:07;;;;;;;30.92;16.67;;;0.20;66.10;;;;;;5045379;28;20496;-74
2021/01/03 03:46:34;;;;;;;30.90;15.65;;;0.20;66.10;;;;;;5042970;28;20049;-72
2021/01/03 03:49:01;;;;;;;29.35;15.48;;;0.20;66.10;;;;;;5042928;28;20067;-73
2021/01/03 03:51:29;;;;;;;30.55;15.90;;;0.10;66.00;;;;;;5043069;28;20431;-73
2021/01/03 03:53:57;;;;;;;27.42;16.50;;;0.10;66.00;;;;;;5045108;28;20586;-73
2021/01/03 03:56:24;;;;;;;31.73;16.23;;;0.00;67.10;;;;;;5045577;28;20143;-73
2021/01/03 03:58:51;;;;;;;26.70;16.25;;;0.10;67.10;;;;;;5042699;28;20055;-71
2021/01/03 04:01:18;;;;;;;31.13;16.60;;;0.10;67.00;;;;;;5046001;28;20128;-72
2021/01/03 04:03:45;;;;;;;32.67;17.23;;;0.10;67.30;;;;;;5040876;28;20049;-73
2021/01/03 04:06:12;;;;;;;31.67;16.65;;;0.10;67.10;;;;;;5044759;28;20044;-72
2021/01/03 04:08:39;;;;;;;29.00;16.55;;;0.10;67.70;;;;;;5043827;28;20045;-70
2021/01/03 04:11:07;;;;;;;33.90;17.23;;;0.10;67.40;;;;;;5045143;28;20491;-71
2021/01/03 04:13:33;;;;;;;32.88;17.63;;;0.10;67.60;;;;;;5042206;28;20052;-70
2021/01/03 04:16:00;;;;;;;32.28;16.42;;;0.10;68.40;;;;;;5044472;28;20053;-71
2021/01/03 04:18:28;;;;;;;30.90;16.15;;;0.20;68.10;;;;;;5043512;28;20056;-71
2021/01/03 04:20:55;;;;;;;31.73;16.90;;;0.10;68.00;;;;;;5044597;28;20048;-72
2021/01/03 04:23:22;;;;;;;33.03;17.23;;;0.10;67.90;;;;;;5040558;28;20136;-72
2021/01/03 04:26:00;;;;;;;31.17;16.50;;;0.10;68.40;;;;;;5045108;28;20148;-72
2021/01/03 04:28:27;;;;;;;33.97;17.63;;;0.10;68.50;;;;;;5046004;28;20063;-72
2021/01/03 04:30:54;;;;;;;30.35;16.92;;;0.10;68.30;;;;;;5048442;28;20056;-72
2021/01/03 04:33:21;;;;;;;36.90;17.55;;;0.00;67.90;;;;;;5045172;28;20630;-71
2021/01/03 04:35:50;;;;;;;30.23;16.77;;;0.00;68.20;;;;;;5049223;28;20049;-73
2021/01/03 04:38:17;;;;;;;31.50;17.23;;;0.00;68.70;;;;;;5048404;28;20499;-71
2021/01/03 04:40:47;;;;;;;32.83;17.45;;;0.10;68.90;;;;;;5048138;28;20368;-72
2021/01/03 04:43:20;;;;;;;32.08;17.30;;;0.10;68.80;;;;;;5044854;28;20380;-70
2021/01/03 04:45:48;;;;;;;31.85;17.35;;;0.10;68.90;;;;;;5046870;28;20045;-70
2021/01/03 04:48:19;;;;;;;32.53;17.75;;;0.00;68.80;;;;;;5046872;28;20048;-71
2021/01/03 04:51:13;;;;;;;34.58;17.73;;;0.10;69.10;;;;;;5047123;28;20053;-71
2021/01/03 04:53:48;;;;;;;35.45;18.23;;;0.00;68.90;;;;;;5042446;28;20060;-70
2021/01/03 04:56:24;;;;;;;32.33;18.25;;;0.10;69.30;;;;;;5046624;28;20052;-70
2021/01/03 04:59:12;;;;;;;33.65;17.73;;;0.10;69.70;;;;;;5045192;28;20537;-71
2021/01/03 05:02:12;;;;;;;30.90;16.70;;;0.10;69.60;;;;;;5047515;28;20431;-71
2021/01/03 05:04:54;;;;;;;37.40;19.17;;;0.10;69.30;;;;;;5044485;28;20045;-70
2021/01/03 05:07:27;;;;;;;31.60;17.25;;;0.00;69.40;;;;;;5046337;28;20045;-70
2021/01/03 05:10:07;;;;;;;35.35;17.58;;;0.10;69.90;;;;;;5046376;28;20068;-71
2021/01/03 05:12:45;;;;;;;38.25;18.98;;;0.10;69.50;;;;;;5043304;28;20063;-71
2021/01/03 05:15:21;;;;;;;34.90;18.05;;;0.00;69.80;;;;;;5046364;28;20049;-69
2021/01/03 05:17:47;;;;;;;30.05;17.48;;;0.00;69.80;;;;;;5044792;28;20055;-71
2021/01/03 05:20:15;;;;;;;33.00;17.65;;;0.00;69.80;;;;;;5047439;28;20216;-72
2021/01/03 05:22:43;;;;;;;33.10;17.95;;;0.00;69.90;;;;;;5042312;28;20059;-71
2021/01/03 05:25:13;;;;;;;32.88;16.08;;;0.00;69.80;;;;;;5045778;28;20049;-72
2021/01/03 05:27:41;;;;;;;32.10;17.73;;;0.00;69.80;;;;;;5045400;28;20057;-70
2021/01/03 05:30:18;;;;;;;37.15;18.48;;;0.10;70.00;;;;;;5046061;28;20516;-70
2021/01/03 05:32:45;;;;;;;32.28;17.08;;;0.10;70.00;;;;;;5039644;28;20479;-70
2021/01/03 05:35:21;;;;;;;34.65;18.23;;;0.10;70.00;;;;;;5046341;28;20080;-70
2021/01/03 05:37:49;;;;;;;33.78;18.13;;;0.10;70.00;;;;;;5044375;28;20051;-73
2021/01/03 05:40:26;;;;;;;34.97;17.48;;;0.10;70.00;;;;;;5045460;28;20075;-71
2021/01/03 05:43:12;;;;;;;32.95;17.23;;;0.00;69.80;;;;;;5040971;28;20156;-72
2021/01/03 05:45:55;;;;;;;31.02;16.42;;;0.00;69.80;;;;;;5044906;28;20049;-69
2021/01/03 05:48:25;;;;;;;31.52;16.40;;;0.00;69.80;;;;;;5044489;28;20620;-72
2021/01/03 05:50:52;;;;;;;35.17;17.55;;;0.00;69.90;;;;;;5045699;28;20499;-71
2021/01/03 05:53:23;;;;;;;33.33;17.83;;;0.00;69.80;;;;;;5041590;28;20053;-72
2021/01/03 05:55:52;;;;;;;33.92;16.65;;;0.00;69.80;;;;;;5044624;28;20045;-71
2021/01/03 05:58:24;;;;;;;31.73;16.33;;;0.00;69.80;;;;;;5044352;28;20158;-71
2021/01/03 06:00:52;;;;;;;36.75;18.20;;;-0.10;69.80;;;;;;5045432;28;20076;-71
2021/01/03 06:03:23;;;;;;;33.55;17.58;;;0.00;71.50;;;;;;5043415;28;20047;-71
2021/01/03 06:05:53;;;;;;;32.65;17.40;;;0.00;71.20;;;;;;5046982;28;20053;-72
2021/01/03 06:08:23;;;;;;;32.17;17.15;;;0.00;71.20;;;;;;5045509;28;20696;-74
2021/01/03 06:10:53;;;;;;;31.27;17.15;;;0.00;71.30;;;;;;5046151;28;20806;-70
2021/01/03 06:13:25;;;;;;;35.35;18.67;;;-0.10;71.40;;;;;;5042420;28;20045;-71
2021/01/03 06:15:57;;;;;;;38.00;19.30;;;0.00;71.50;;;;;;5046164;28;20045;-71
2021/01/03 06:18:34;;;;;;;33.58;18.40;;;0.00;71.80;;;;;;5046187;28;20055;-72
2021/01/03 06:21:01;;;;;;;36.38;17.73;;;0.00;71.70;;;;;;5045953;28;20525;-72
2021/01/03 06:23:33;;;;;;;38.28;18.73;;;0.00;71.60;;;;;;5042708;28;20049;-73
2021/01/03 06:26:07;;;;;;;37.70;19.67;;;0.00;71.70;;;;;;5046329;28;20419;-71
2021/01/03 06:28:45;;;;;;;36.70;18.33;;;0.00;71.50;;;;;;5044961;28;20051;-71
2021/01/03 06:31:53;;;;;;;35.42;18.02;;;0.00;71.40;;;;;;5045245;28;20055;-72
2021/01/03 06:34:28;;;;;;;36.47;19.77;;;0.00;71.60;;;;;;5040801;28;20099;-72
2021/01/03 06:36:59;;;;;;;38.97;19.40;;;0.00;71.30;;;;;;5045823;28;20139;-73
2021/01/03 06:39:33;;;;;;;37.95;18.65;;;0.00;71.50;;;;;;5045199;28;20055;-71
2021/01/03 06:42:02;;;;;;;44.20;20.63;;;0.00;71.70;;;;;;5045593;28;20136;-71
2021/01/03 06:44:48;;;;;;;39.30;19.60;;;0.00;71.60;;;;;;5040560;28;20059;-70
2021/01/03 06:48:06;;;;;;;37.40;19.42;;;0.00;71.40;;;;;;5043308;28;20053;-70
2021/01/03 06:50:59;;;;;;;37.70;17.98;;;0.00;71.50;;;;;;5045832;28;20053;-74
2021/01/03 06:53:52;;;;;;;38.42;20.20;;;0.00;71.60;;;;;;5041738;28;20466;-73
2021/01/03 06:56:57;;;;;;;34.30;17.55;;;0.00;71.60;;;;;;5046003;28;20055;-71
2021/01/03 06:59:49;;;;;;;33.85;18.00;;;0.00;71.60;;;;;;5042700;28;20052;-72
2021/01/03 07:02:18;;;;;;;37.83;18.08;;;0.00;71.70;;;;;;5043276;28;20056;-73
2021/01/03 07:04:46;;;;;;;36.33;18.17;;;0.10;71.70;;;;;;5042591;28;20128;-72
2021/01/03 07:07:18;;;;;;;38.90;19.70;;;0.10;71.80;;;;;;5046434;28;20148;-73
2021/01/03 07:10:00;;;;;;;33.90;17.40;;;0.00;71.20;;;;;;5045868;28;20044;-72
2021/01/03 07:12:37;;;;;;;42.55;17.98;;;0.00;71.60;;;;;;5043274;28;20053;-72
2021/01/03 07:15:12;;;;;;;38.80;17.77;;;0.00;71.20;;;;;;5044192;28;20041;-71
2021/01/03 07:18:09;;;;;;;36.67;18.60;;;0.00;71.40;;;;;;5044419;28;20060;-71
2021/01/03 07:20:50;;;;;;;35.10;17.42;;;0.00;71.50;;;;;;5045818;28;20652;-70
2021/01/03 07:23:29;;;;;;;36.40;17.90;;;0.10;71.70;;;;;;5039517;28;20049;-71
2021/01/03 07:26:13;;;;;;;33.10;16.88;;;0.10;71.70;;;;;;5045125;28;20048;-71
2021/01/03 07:28:45;;;;;;;37.00;18.80;;;0.10;70.50;;;;;;5042661;28;20124;-70
2021/01/03 07:31:27;;;;;;;34.95;18.92;;;0.10;70.10;;;;;;5045008;28;20516;-70
2021/01/03 07:34:02;;;;;;;31.88;16.27;;;0.10;71.30;;;;;;5039405;28;20074;-72
2021/01/03 07:36:49;;;;;;;36.58;17.92;;;0.10;70.00;;;;;;5044023;28;20053;-71
2021/01/03 07:39:19;;;;;;;32.80;17.15;;;0.20;70.80;;;;;;5043582;28;20049;-71
2021/01/03 07:41:48;;;;;;;32.47;16.48;;;0.10;70.00;;;;;;5045706;28;20059;-72
2021/01/03 07:44:31;;;;;;;32.00;16.20;;;0.10;70.00;;;;;;5038906;28;20045;-72
2021/01/03 07:46:59;;;;;;;33.35;16.60;;;0.10;70.10;;;;;;5045237;28;20144;-71
2021/01/03 07:49:39;;;;;;;33.75;16.35;;;0.20;70.00;;;;;;5045289;28;20067;-71
2021/01/03 07:52:37;;;;;;;31.40;15.43;;;0.20;69.80;;;;;;5045202;28;20048;-72
2021/01/03 07:55:21;;;;;;;30.45;15.77;;;0.20;69.20;;;;;;5043071;28;20049;-70
2021/01/03 07:57:59;;;;;;;32.63;16.10;;;0.30;69.80;;;;;;5042338;28;20044;-72
2021/01/03 08:00:29;;;;;;;33.65;17.13;;;0.30;68.20;;;;;;5044882;28;20105;-72
2021/01/03 08:03:01;;;;;;;33.03;17.30;;;0.30;68.70;;;;;;5042311;28;20063;-70
2021/01/03 08:05:30;;;;;;;29.70;16.02;;;0.30;66.90;;;;;;5050212;28;20056;-71
2021/01/03 08:08:07;;;;;;;31.23;15.55;;;0.20;67.60;;;;;;5052637;28;20053;-72
2021/01/03 08:10:34;;;;;;;33.13;17.17;;;0.20;66.70;;;;;;5051372;28;20049;-71
2021/01/03 08:13:07;;;;;;;32.60;17.77;;;0.20;67.20;;;;;;5048782;28;20055;-71
2021/01/03 08:15:35;;;;;;;27.90;15.07;;;0.20;66.50;;;;;;5052028;28;20136;-72
2021/01/03 08:18:05;;;;;;;27.13;14.50;;;0.20;67.20;;;;;;5049930;28;20470;-71
2021/01/03 08:20:33;;;;;;;26.20;14.93;;;0.20;67.70;;;;;;5051448;28;20473;-71
2021/01/03 08:23:15;;;;;;;26.98;15.13;;;0.20;67.60;;;;;;5044585;28;20103;-71
2021/01/03 08:25:42;;;;;;;31.67;16.45;;;0.20;67.10;;;;;;5046052;28;20135;-71
2021/01/03 08:28:19;;;;;;;30.85;16.13;;;0.20;67.00;;;;;;5045224;28;20060;-71
2021/01/03 08:30:48;;;;;;;28.17;15.93;;;0.20;67.20;;;;;;5047556;28;20057;-71
2021/01/03 08:33:22;;;;;;;30.20;16.30;;;0.20;67.60;;;;;;5040887;28;20067;-72
2021/01/03 08:35:49;;;;;;;29.50;16.30;;;0.30;68.10;;;;;;5046631;28;20051;-70
2021/01/03 08:38:25;;;;;;;31.85;16.38;;;0.30;67.20;;;;;;5044375;28;20084;-71
2021/01/03 08:40:52;;;;;;;32.40;15.95;;;0.30;66.20;;;;;;5047726;28;20495;-70
2021/01/03 08:43:23;;;;;;;29.05;15.10;;;0.30;66.60;;;;;;5041674;28;20045;-71
2021/01/03 08:45:51;;;;;;;27.30;14.57;;;0.30;66.30;;;;;;5046791;28;20788;-70
2021/01/03 08:48:21;;;;;;;28.27;15.55;;;0.30;66.20;;;;;;5046381;28;20048;-72
2021/01/03 08:50:48;;;;;;;27.70;15.32;;;0.30;66.20;;;;;;5046835;28;20049;-71
2021/01/03 08:53:21;;;;;;;30.00;15.40;;;0.30;65.70;;;;;;5040776;28;20439;-71
2021/01/03 08:55:50;;;;;;;31.67;16.45;;;0.40;65.60;;;;;;5045982;28;20049;-71
2021/01/03 08:58:20;;;;;;;28.13;15.52;;;0.50;66.40;;;;;;5045346;28;20057;-71
2021/01/03 09:00:49;;;;;;;27.92;16.23;;;0.60;66.40;;;;;;5045990;28;20431;-71
2021/01/03 09:03:21;;;;;;;28.92;15.93;;;0.60;66.40;;;;;;5040722;28;20057;-70
2021/01/03 09:05:50;;;;;;;30.45;16.23;;;0.60;63.10;;;;;;5046623;28;20050;-70
2021/01/03 09:08:29;;;;;;;26.15;14.35;;;0.70;65.00;;;;;;5045311;28;20559;-70
2021/01/03 09:11:06;;;;;;;26.67;13.60;;;0.70;62.50;;;;;;5047178;28;20049;-71
2021/01/03 09:13:33;;;;;;;25.40;13.98;;;0.50;60.30;;;;;;5039395;28;20057;-71
2021/01/03 09:16:09;;;;;;;24.90;13.57;;;0.60;62.40;;;;;;5045917;28;20045;-71
2021/01/03 09:18:41;;;;;;;20.10;12.05;;;0.60;61.70;;;;;;5045383;28;20066;-72
2021/01/03 09:21:12;;;;;;;24.25;13.43;;;0.50;62.30;;;;;;5046512;28;20136;-72
2021/01/03 09:23:41;;;;;;;23.58;13.13;;;0.50;62.30;;;;;;5040898;28;20064;-73
2021/01/03 09:26:09;;;;;;;25.80;14.32;;;0.50;61.20;;;;;;5046196;28;20049;-74
2021/01/03 09:28:38;;;;;;;27.25;15.57;;;0.50;62.20;;;;;;5045387;28;20072;-74
2021/01/03 09:31:17;;;;;;;24.30;13.93;;;0.60;62.40;;;;;;5046237;28;20077;-76
2021/01/03 09:33:47;;;;;;;26.20;14.57;;;0.60;63.00;;;;;;5039589;28;20049;-73
2021/01/03 09:36:38;;;;;;;28.15;14.05;;;0.80;63.20;;;;;;5046427;28;20422;-74
2021/01/03 09:39:27;;;;;;;24.48;13.48;;;0.80;59.70;;;;;;5044732;28;20653;-72
2021/01/03 09:42:26;;;;;;;24.05;14.18;;;0.70;59.20;;;;;;5045735;28;20041;-74
2021/01/03 09:45:03;;;;;;;24.77;13.20;;;0.80;61.00;;;;;;5042977;28;20041;-72
2021/01/03 09:47:37;;;;;;;29.42;13.50;;;0.50;58.50;;;;;;5045601;28;20068;-73
2021/01/03 09:50:16;;;;;;;24.40;14.20;;;0.90;60.40;;;;;;5045820;28;20529;-75
2021/01/03 09:52:47;;;;;;;22.95;13.38;;;0.90;60.70;;;;;;5042536;28;20099;-73
2021/01/03 09:55:19;;;;;;;25.67;13.80;;;0.60;59.70;;;;;;5046745;28;20052;-73
2021/01/03 09:57:57;;;;;;;28.58;14.50;;;0.80;62.30;;;;;;5047353;28;20067;-73
2021/01/03 10:00:26;;;;;;;27.25;14.20;;;1.00;61.40;;;;;;5047070;28;20388;-72
2021/01/03 10:03:12;;;;;;;26.60;13.75;;;1.10;58.80;;;;;;5043014;28;20539;-74
2021/01/03 10:05:39;;;;;;;25.63;14.27;;;1.00;55.80;;;;;;5046553;28;20045;-72
2021/01/03 10:08:09;;;;;;;24.10;13.68;;;1.10;55.40;;;;;;5046124;28;20095;-72
2021/01/03 10:10:43;;;;;;;23.73;14.43;;;1.10;52.90;;;;;;5047620;28;20457;-72
2021/01/03 10:13:12;;;;;;;24.52;13.38;;;1.10;55.30;;;;;;5042282;28;20053;-72
2021/01/03 10:15:40;;;;;;;23.70;13.10;;;0.90;54.40;;;;;;5046820;28;20383;-71
2021/01/03 10:18:10;;;;;;;25.58;14.05;;;1.10;57.70;;;;;;5045903;28;20053;-71
2021/01/03 10:20:45;;;;;;;23.10;13.07;;;1.30;54.20;;;;;;5047152;28;20087;-71
2021/01/03 10:23:15;;;;;;;24.88;14.25;;;1.10;52.90;;;;;;5042216;28;20053;-73
2021/01/03 10:25:42;;;;;;;26.33;14.55;;;1.20;52.00;;;;;;5046071;28;20056;-71
2021/01/03 10:28:14;;;;;;;22.75;13.52;;;1.10;51.20;;;;;;5045089;28;20053;-71
2021/01/03 10:30:43;;;;;;;26.38;14.85;;;1.10;51.70;;;;;;5046850;28;20056;-71
2021/01/03 10:33:10;;;;;;;28.73;14.50;;;1.10;52.00;;;;;;5040779;28;20059;-72
2021/01/03 10:35:37;;;;;;;25.52;14.50;;;1.10;52.90;;;;;;5045830;28;20475;-71
2021/01/03 10:38:06;;;;;;;22.10;13.73;;;1.00;53.90;;;;;;5045714;28;20049;-71
2021/01/03 10:40:33;;;;;;;23.38;14.15;;;1.10;53.30;;;;;;5046944;28;20152;-71
2021/01/03 10:43:00;;;;;;;22.50;13.35;;;1.00;55.40;;;;;;5041961;28;20181;-72
2021/01/03 10:45:28;;;;;;;28.08;14.13;;;1.00;55.20;;;;;;5046384;28;20041;-73
2021/01/03 10:47:55;;;;;;;27.58;15.27;;;0.90;54.50;;;;;;5048803;28;20053;-73
2021/01/03 10:50:23;;;;;;;27.25;14.43;;;1.10;57.30;;;;;;5051321;28;20144;-71
2021/01/03 10:52:50;;;;;;;25.17;14.23;;;1.00;53.80;;;;;;5044774;28;20052;-73
2021/01/03 10:55:21;;;;;;;27.08;13.57;;;0.90;53.30;;;;;;5048519;28;20044;-73
2021/01/03 10:57:48;;;;;;;26.45;14.48;;;0.90;54.00;;;;;;5048996;28;20668;-72
2021/01/03 11:00:16;;;;;;;28.05;14.82;;;1.00;54.90;;;;;;5050346;28;20127;-72
2021/01/03 11:02:44;;;;;;;26.23;14.27;;;1.20;54.50;;;;;;5046258;28;20052;-73
2021/01/03 11:05:12;;;;;;;23.58;14.13;;;1.10;52.20;;;;;;5048047;28;20060;-74
2021/01/03 11:07:39;;;;;;;23.45;14.43;;;0.90;53.50;;;;;;5047951;28;20049;-74
2021/01/03 11:10:08;;;;;;;27.13;14.52;;;1.10;55.30;;;;;;5049773;28;20041;-74
2021/01/03 11:12:35;;;;;;;27.27;15.13;;;1.10;56.40;;;;;;5044331;28;20156;-76
2021/01/03 11:15:03;;;;;;;28.48;14.98;;;1.30;55.80;;;;;;5046410;28;20052;-74
2021/01/03 11:17:51;;;;;;;25.95;13.52;;;1.40;51.30;;;;;;5049138;28;20495;-74
2021/01/03 11:20:17;;;;;;;25.90;13.52;;;1.20;51.10;;;;;;5048473;28;20442;-74
2021/01/03 11:22:44;;;;;;;25.00;13.88;;;1.10;51.10;;;;;;5046238;28;20049;-73
2021/01/03 11:25:12;;;;;;;23.48;13.73;;;1.00;50.00;;;;;;5046853;28;20041;-75
2021/01/03 11:27:39;;;;;;;25.55;13.82;;;0.90;50.90;;;;;;5048932;28;20051;-74
2021/01/03 11:30:07;;;;;;;26.23;14.48;;;0.90;53.10;;;;;;5050710;28;20077;-75
2021/01/03 11:32:34;;;;;;;22.95;13.18;;;1.00;55.40;;;;;;5046420;28;20194;-74
2021/01/03 11:35:04;;;;;;;23.10;12.85;;;0.90;51.20;;;;;;5047119;28;20053;-74
2021/01/03 11:37:31;;;;;;;25.77;13.15;;;0.90;51.20;;;;;;5055533;28;20056;-73
2021/01/03 11:39:58;;;;;;;22.45;12.95;;;0.90;53.10;;;;;;5056446;28;20051;-74
2021/01/03 11:42:29;;;;;;;23.95;12.93;;;0.90;53.40;;;;;;5054023;28;20475;-75
2021/01/03 11:44:56;;;;;;;26.42;13.63;;;0.90;51.90;;;;;;5052862;28;20048;-73
2021/01/03 11:47:24;;;;;;;23.88;13.32;;;1.00;54.90;;;;;;5055446;28;20049;-74
2021/01/03 11:49:52;;;;;;;22.42;13.93;;;1.10;55.10;;;;;;5055867;28;20136;-73
2021/01/03 11:52:30;;;;;;;22.50;13.82;;;1.00;54.10;;;;;;5050089;28;20060;-72
2021/01/03 11:54:58;;;;;;;23.50;14.00;;;1.10;55.40;;;;;;5053182;28;20092;-74
2021/01/03 11:57:25;;;;;;;22.60;13.93;;;1.10;54.90;;;;;;5054287;28;20045;-72
2021/01/03 11:59:52;;;;;;;26.65;14.50;;;1.10;56.30;;;;;;5053024;28;20049;-73
2021/01/03 12:02:20;;;;;;;25.33;13.55;;;1.10;55.60;;;;;;5053705;28;20156;-72
2021/01/03 12:04:47;;;;;;;21.35;13.05;;;0.90;53.70;;;;;;5052561;28;20479;-71
2021/01/03 12:07:16;;;;;;;24.85;13.88;;;1.10;56.50;;;;;;5054852;28;20470;-73
2021/01/03 12:09:45;;;;;;;26.88;14.15;;;1.20;56.50;;;;;;5055915;28;20055;-73
2021/01/03 12:12:15;;;;;;;27.63;16.60;;;1.30;56.50;;;;;;5055796;28;20150;-72
2021/01/03 12:14:42;;;;;;;26.42;15.68;;;1.20;55.10;;;;;;5051907;28;20055;-71
2021/01/03 12:17:12;;;;;;;27.05;14.55;;;1.20;56.60;;;;;;5053529;28;20252;-72
2021/01/03 12:19:39;;;;;;;28.58;15.27;;;1.10;56.20;;;;;;5053222;28;20049;-74
2021/01/03 12:22:07;;;;;;;29.88;16.42;;;1.10;56.40;;;;;;5055656;28;20132;-72
2021/01/03 12:24:35;;;;;;;27.83;15.43;;;1.00;54.90;;;;;;5050890;28;20056;-72
2021/01/03 12:27:04;;;;;;;27.65;15.27;;;1.10;56.90;;;;;;5055014;28;20065;-72
2021/01/03 12:29:31;;;;;;;30.05;17.35;;;1.10;56.20;;;;;;5056195;28;20378;-73
2021/01/03 12:32:00;;;;;;;31.10;17.83;;;1.10;57.90;;;;;;5054991;28;20521;-74
2021/01/03 12:34:28;;;;;;;31.88;17.30;;;1.00;55.80;;;;;;5050071;28;20053;-72
2021/01/03 12:37:02;;;;;;;30.92;15.20;;;1.20;56.90;;;;;;5054767;28;20067;-72
2021/01/03 12:39:29;;;;;;;25.95;15.15;;;1.10;56.20;;;;;;5054684;28;20044;-72
2021/01/03 12:41:57;;;;;;;27.00;15.40;;;1.10;55.70;;;;;;5052508;28;20423;-72
2021/01/03 12:44:24;;;;;;;26.40;16.33;;;1.10;56.50;;;;;;5050254;28;20123;-71
2021/01/03 12:46:51;;;;;;;27.05;16.13;;;1.10;56.60;;;;;;5053660;28;20610;-72
2021/01/03 12:49:19;;;;;;;29.10;15.25;;;1.30;59.00;;;;;;5051002;28;20055;-72
2021/01/03 12:51:51;;;;;;;26.95;14.55;;;1.30;56.70;;;;;;5052476;28;20048;-72
2021/01/03 12:54:18;;;;;;;26.38;14.75;;;1.10;52.90;;;;;;5046723;28;20166;-71
2021/01/03 12:56:45;;;;;;;24.55;15.02;;;1.20;55.30;;;;;;5049677;28;20049;-72
2021/01/03 12:59:12;;;;;;;26.45;14.82;;;1.30;55.10;;;;;;5051647;28;20376;-72
2021/01/03 13:01:42;;;;;;;29.55;16.45;;;1.30;54.90;;;;;;5052748;28;20072;-73